sensor_id;sensor_type;location;lat;lon;timestamp;P1;durP1;ratioP1;P2;durP2;ratioP2
43325;SDS011;28920;59.862;30.636;2022-09-17T00:01:13;3.30;;;1.80;;
43325;SDS011;28920;59.862;30.636;2022-09-17T00:03:42;2.28;;;1.70;;
43325;SDS011;28920;59.862;30.636;2022-09-17T00:06:12;2.25;;;1.70;;
43325;SDS011;28920;59.862;30.636;2022-09-17T00:08:40;2.47;;;1.85;;
43325;SDS011;28920;59.862;30.636;2022-09-17T00:11:09;3.45;;;1.75;;
43325;SDS011;28920;59.862;30.636;2022-09-17T00:13:40;2.83;;;1.77;;
43325;SDS011;28920;59.862;30.636;2022-09-17T00:16:09;4.00;;;1.92;;
43325;SDS011;28920;59.862;30.636;2022-09-17T00:18:37;2.30;;;1.90;;
43325;SDS011;28920;59.862;30.636;2022-09-17T00:21:07;3.25;;;1.77;;
43325;SDS011;28920;59.862;30.636;2022-09-17T00:23:44;3.80;;;1.98;;
43325;SDS011;28920;59.862;30.636;2022-09-17T00:26:13;6.72;;;2.28;;
43325;SDS011;28920;59.862;30.636;2022-09-17T00:28:40;3.62;;;1.65;;
43325;SDS011;28920;59.862;30.636;2022-09-17T00:31:13;4.12;;;2.03;;
43325;SDS011;28920;59.862;30.636;2022-09-17T00:33:41;5.87;;;3.35;;
43325;SDS011;28920;59.862;30.636;2022-09-17T00:36:09;4.12;;;1.90;;
43325;SDS011;28920;59.862;30.636;2022-09-17T00:38:38;3.12;;;1.77;;
43325;SDS011;28920;59.862;30.636;2022-09-17T00:41:06;2.83;;;1.85;;
43325;SDS011;28920;59.862;30.636;2022-09-17T00:43:36;3.65;;;2.42;;
43325;SDS011;28920;59.862;30.636;2022-09-17T00:46:13;3.30;;;1.80;;
43325;SDS011;28920;59.862;30.636;2022-09-17T00:48:50;5.53;;;1.80;;
43325;SDS011;28920;59.862;30.636;2022-09-17T00:51:27;4.55;;;1.65;;
43325;SDS011;28920;59.862;30.636;2022-09-17T00:54:01;3.62;;;1.58;;
43325;SDS011;28920;59.862;30.636;2022-09-17T00:56:34;3.62;;;3.25;;
43325;SDS011;28920;59.862;30.636;2022-09-17T00:59:03;2.60;;;1.65;;
43325;SDS011;28920;59.862;30.636;2022-09-17T01:01:32;5.60;;;1.67;;
43325;SDS011;28920;59.862;30.636;2022-09-17T01:04:00;1.98;;;1.30;;
43325;SDS011;28920;59.862;30.636;2022-09-17T01:06:30;3.15;;;2.00;;
43325;SDS011;28920;59.862;30.636;2022-09-17T01:09:06;3.05;;;1.75;;
43325;SDS011;28920;59.862;30.636;2022-09-17T01:11:55;6.18;;;1.75;;
43325;SDS011;28920;59.862;30.636;2022-09-17T01:14:38;3.47;;;2.10;;
43325;SDS011;28920;59.862;30.636;2022-09-17T01:17:18;2.03;;;1.45;;
43325;SDS011;28920;59.862;30.636;2022-09-17T01:26:22;2.50;;;1.87;;
43325;SDS011;28920;59.862;30.636;2022-09-17T01:29:08;2.62;;;1.92;;
43325;SDS011;28920;59.862;30.636;2022-09-17T01:31:51;3.83;;;2.60;;
43325;SDS011;28920;59.862;30.636;2022-09-17T01:34:25;5.45;;;2.37;;
43325;SDS011;28920;59.862;30.636;2022-09-17T01:37:01;6.20;;;2.30;;
43325;SDS011;28920;59.862;30.636;2022-09-17T01:39:41;4.20;;;2.35;;
43325;SDS011;28920;59.862;30.636;2022-09-17T01:42:15;3.47;;;2.55;;
43325;SDS011;28920;59.862;30.636;2022-09-17T01:44:52;3.15;;;2.45;;
43325;SDS011;28920;59.862;30.636;2022-09-17T01:47:28;3.30;;;2.45;;
43325;SDS011;28920;59.862;30.636;2022-09-17T01:50:00;3.45;;;2.37;;
43325;SDS011;28920;59.862;30.636;2022-09-17T01:52:31;3.12;;;2.40;;
43325;SDS011;28920;59.862;30.636;2022-09-17T01:55:03;4.93;;;2.58;;
43325;SDS011;28920;59.862;30.636;2022-09-17T01:57:35;5.80;;;2.70;;
43325;SDS011;28920;59.862;30.636;2022-09-17T02:00:07;3.25;;;2.40;;
43325;SDS011;28920;59.862;30.636;2022-09-17T02:02:39;5.00;;;2.60;;
43325;SDS011;28920;59.862;30.636;2022-09-17T02:05:12;3.90;;;3.00;;
43325;SDS011;28920;59.862;30.636;2022-09-17T02:07:43;5.85;;;3.08;;
43325;SDS011;28920;59.862;30.636;2022-09-17T02:10:15;5.80;;;3.75;;
43325;SDS011;28920;59.862;30.636;2022-09-17T02:12:48;7.97;;;4.00;;
43325;SDS011;28920;59.862;30.636;2022-09-17T02:15:21;8.10;;;4.32;;
43325;SDS011;28920;59.862;30.636;2022-09-17T02:17:55;9.40;;;3.78;;
43325;SDS011;28920;59.862;30.636;2022-09-17T02:20:28;5.12;;;3.83;;
43325;SDS011;28920;59.862;30.636;2022-09-17T02:23:03;5.93;;;4.05;;
43325;SDS011;28920;59.862;30.636;2022-09-17T02:25:39;8.82;;;3.92;;
43325;SDS011;28920;59.862;30.636;2022-09-17T02:28:14;5.28;;;3.70;;
43325;SDS011;28920;59.862;30.636;2022-09-17T02:30:46;6.55;;;4.30;;
43325;SDS011;28920;59.862;30.636;2022-09-17T02:33:15;6.55;;;4.12;;
43325;SDS011;28920;59.862;30.636;2022-09-17T02:35:43;7.57;;;4.00;;
43325;SDS011;28920;59.862;30.636;2022-09-17T02:38:19;4.53;;;3.70;;
43325;SDS011;28920;59.862;30.636;2022-09-17T02:40:49;7.87;;;3.92;;
43325;SDS011;28920;59.862;30.636;2022-09-17T02:43:25;5.53;;;3.62;;
43325;SDS011;28920;59.862;30.636;2022-09-17T02:46:09;6.47;;;3.40;;
43325;SDS011;28920;59.862;30.636;2022-09-17T02:48:58;4.25;;;3.10;;
43325;SDS011;28920;59.862;30.636;2022-09-17T02:54:17;11.10;;;3.40;;
43325;SDS011;28920;59.862;30.636;2022-09-17T02:56:55;7.65;;;3.50;;
43325;SDS011;28920;59.862;30.636;2022-09-17T02:59:30;5.55;;;2.83;;
43325;SDS011;28920;59.862;30.636;2022-09-17T03:02:07;5.97;;;3.30;;
43325;SDS011;28920;59.862;30.636;2022-09-17T03:04:46;6.12;;;3.08;;
43325;SDS011;28920;59.862;30.636;2022-09-17T03:07:16;3.87;;;2.90;;
43325;SDS011;28920;59.862;30.636;2022-09-17T03:09:46;4.00;;;2.40;;
43325;SDS011;28920;59.862;30.636;2022-09-17T03:12:14;3.95;;;2.80;;
43325;SDS011;28920;59.862;30.636;2022-09-17T03:14:42;6.03;;;2.97;;
43325;SDS011;28920;59.862;30.636;2022-09-17T03:17:10;7.50;;;2.83;;
43325;SDS011;28920;59.862;30.636;2022-09-17T03:19:39;4.12;;;2.65;;
43325;SDS011;28920;59.862;30.636;2022-09-17T03:22:09;6.05;;;2.33;;
43325;SDS011;28920;59.862;30.636;2022-09-17T03:24:37;5.70;;;2.35;;
43325;SDS011;28920;59.862;30.636;2022-09-17T03:27:05;5.05;;;2.30;;
43325;SDS011;28920;59.862;30.636;2022-09-17T03:29:33;4.65;;;2.30;;
43325;SDS011;28920;59.862;30.636;2022-09-17T03:32:01;2.72;;;2.22;;
43325;SDS011;28920;59.862;30.636;2022-09-17T03:34:29;5.57;;;2.70;;
43325;SDS011;28920;59.862;30.636;2022-09-17T03:36:57;5.30;;;2.17;;
43325;SDS011;28920;59.862;30.636;2022-09-17T03:39:27;4.37;;;2.20;;
43325;SDS011;28920;59.862;30.636;2022-09-17T03:41:55;3.92;;;2.33;;
43325;SDS011;28920;59.862;30.636;2022-09-17T03:44:22;5.85;;;3.05;;
43325;SDS011;28920;59.862;30.636;2022-09-17T03:46:51;9.15;;;4.68;;
43325;SDS011;28920;59.862;30.636;2022-09-17T03:49:18;5.75;;;2.67;;
43325;SDS011;28920;59.862;30.636;2022-09-17T03:51:46;3.25;;;2.60;;
43325;SDS011;28920;59.862;30.636;2022-09-17T03:54:14;4.78;;;2.65;;
43325;SDS011;28920;59.862;30.636;2022-09-17T03:56:44;4.60;;;2.97;;
43325;SDS011;28920;59.862;30.636;2022-09-17T03:59:11;5.03;;;3.42;;
43325;SDS011;28920;59.862;30.636;2022-09-17T04:01:39;5.60;;;2.92;;
43325;SDS011;28920;59.862;30.636;2022-09-17T04:04:08;5.37;;;2.70;;
43325;SDS011;28920;59.862;30.636;2022-09-17T04:06:35;5.97;;;3.05;;
43325;SDS011;28920;59.862;30.636;2022-09-17T04:09:03;5.90;;;3.50;;
43325;SDS011;28920;59.862;30.636;2022-09-17T04:11:31;5.53;;;3.45;;
43325;SDS011;28920;59.862;30.636;2022-09-17T04:14:00;5.25;;;3.60;;
43325;SDS011;28920;59.862;30.636;2022-09-17T04:16:28;3.83;;;2.90;;
43325;SDS011;28920;59.862;30.636;2022-09-17T04:18:56;7.55;;;3.55;;
43325;SDS011;28920;59.862;30.636;2022-09-17T04:21:24;5.32;;;3.65;;
43325;SDS011;28920;59.862;30.636;2022-09-17T04:23:52;4.35;;;3.45;;
43325;SDS011;28920;59.862;30.636;2022-09-17T04:26:20;4.28;;;2.78;;
43325;SDS011;28920;59.862;30.636;2022-09-17T04:28:48;6.80;;;4.00;;
43325;SDS011;28920;59.862;30.636;2022-09-17T04:31:17;4.72;;;2.70;;
43325;SDS011;28920;59.862;30.636;2022-09-17T04:36:15;6.18;;;3.00;;
43325;SDS011;28920;59.862;30.636;2022-09-17T04:38:43;3.83;;;2.53;;
43325;SDS011;28920;59.862;30.636;2022-09-17T04:41:11;4.78;;;2.40;;
43325;SDS011;28920;59.862;30.636;2022-09-17T04:43:38;4.95;;;2.37;;
43325;SDS011;28920;59.862;30.636;2022-09-17T04:46:06;4.90;;;3.17;;
43325;SDS011;28920;59.862;30.636;2022-09-17T04:48:36;4.12;;;1.80;;
43325;SDS011;28920;59.862;30.636;2022-09-17T04:51:04;2.83;;;2.28;;
43325;SDS011;28920;59.862;30.636;2022-09-17T04:53:32;3.65;;;2.53;;
43325;SDS011;28920;59.862;30.636;2022-09-17T04:56:00;4.25;;;2.05;;
43325;SDS011;28920;59.862;30.636;2022-09-17T04:58:28;3.08;;;1.92;;
43325;SDS011;28920;59.862;30.636;2022-09-17T05:00:57;3.53;;;2.33;;
43325;SDS011;28920;59.862;30.636;2022-09-17T05:03:26;3.10;;;1.85;;
43325;SDS011;28920;59.862;30.636;2022-09-17T05:05:55;2.83;;;1.90;;
43325;SDS011;28920;59.862;30.636;2022-09-17T05:08:23;4.05;;;2.03;;
43325;SDS011;28920;59.862;30.636;2022-09-17T05:10:51;3.67;;;1.70;;
43325;SDS011;28920;59.862;30.636;2022-09-17T05:13:19;4.90;;;2.03;;
43325;SDS011;28920;59.862;30.636;2022-09-17T05:15:46;5.15;;;2.28;;
43325;SDS011;28920;59.862;30.636;2022-09-17T05:18:14;4.55;;;2.12;;
43325;SDS011;28920;59.862;30.636;2022-09-17T05:20:42;3.33;;;1.95;;
43325;SDS011;28920;59.862;30.636;2022-09-17T05:23:11;4.00;;;1.90;;
43325;SDS011;28920;59.862;30.636;2022-09-17T05:25:39;3.17;;;2.28;;
43325;SDS011;28920;59.862;30.636;2022-09-17T05:28:07;4.18;;;2.55;;
43325;SDS011;28920;59.862;30.636;2022-09-17T05:30:35;3.25;;;1.77;;
43325;SDS011;28920;59.862;30.636;2022-09-17T05:33:04;3.30;;;2.10;;
43325;SDS011;28920;59.862;30.636;2022-09-17T05:35:33;5.35;;;2.45;;
43325;SDS011;28920;59.862;30.636;2022-09-17T05:38:03;9.02;;;2.58;;
43325;SDS011;28920;59.862;30.636;2022-09-17T05:40:34;4.75;;;2.30;;
43325;SDS011;28920;59.862;30.636;2022-09-17T05:43:03;5.35;;;2.25;;
43325;SDS011;28920;59.862;30.636;2022-09-17T05:45:33;3.92;;;2.37;;
43325;SDS011;28920;59.862;30.636;2022-09-17T05:48:03;6.10;;;2.30;;
43325;SDS011;28920;59.862;30.636;2022-09-17T05:50:33;7.70;;;2.90;;
43325;SDS011;28920;59.862;30.636;2022-09-17T05:53:02;4.80;;;2.05;;
43325;SDS011;28920;59.862;30.636;2022-09-17T05:55:31;5.30;;;2.70;;
43325;SDS011;28920;59.862;30.636;2022-09-17T05:58:07;5.57;;;2.25;;
43325;SDS011;28920;59.862;30.636;2022-09-17T06:00:36;4.90;;;2.00;;
43325;SDS011;28920;59.862;30.636;2022-09-17T06:03:05;5.47;;;2.47;;
43325;SDS011;28920;59.862;30.636;2022-09-17T06:05:33;4.20;;;2.20;;
43325;SDS011;28920;59.862;30.636;2022-09-17T06:08:01;5.78;;;2.45;;
43325;SDS011;28920;59.862;30.636;2022-09-17T06:10:29;4.62;;;2.65;;
43325;SDS011;28920;59.862;30.636;2022-09-17T06:12:58;5.03;;;2.40;;
43325;SDS011;28920;59.862;30.636;2022-09-17T06:15:26;4.32;;;2.35;;
43325;SDS011;28920;59.862;30.636;2022-09-17T06:17:55;2.95;;;2.10;;
43325;SDS011;28920;59.862;30.636;2022-09-17T06:20:23;3.83;;;2.20;;
43325;SDS011;28920;59.862;30.636;2022-09-17T06:22:54;4.68;;;2.30;;
43325;SDS011;28920;59.862;30.636;2022-09-17T06:25:22;4.93;;;1.80;;
43325;SDS011;28920;59.862;30.636;2022-09-17T06:27:51;5.25;;;2.33;;
43325;SDS011;28920;59.862;30.636;2022-09-17T06:30:20;12.13;;;6.25;;
43325;SDS011;28920;59.862;30.636;2022-09-17T06:32:48;7.25;;;5.20;;
43325;SDS011;28920;59.862;30.636;2022-09-17T06:35:16;8.18;;;7.47;;
43325;SDS011;28920;59.862;30.636;2022-09-17T06:37:44;3.40;;;2.70;;
43325;SDS011;28920;59.862;30.636;2022-09-17T06:40:12;5.22;;;3.95;;
43325;SDS011;28920;59.862;30.636;2022-09-17T06:42:40;8.20;;;4.28;;
43325;SDS011;28920;59.862;30.636;2022-09-17T06:45:08;5.07;;;3.97;;
43325;SDS011;28920;59.862;30.636;2022-09-17T06:47:38;4.80;;;3.03;;
43325;SDS011;28920;59.862;30.636;2022-09-17T06:50:06;5.97;;;2.50;;
43325;SDS011;28920;59.862;30.636;2022-09-17T06:52:34;13.80;;;7.25;;
43325;SDS011;28920;59.862;30.636;2022-09-17T06:55:02;5.57;;;2.92;;
43325;SDS011;28920;59.862;30.636;2022-09-17T06:57:30;5.05;;;2.37;;
43325;SDS011;28920;59.862;30.636;2022-09-17T06:59:58;4.90;;;2.97;;
43325;SDS011;28920;59.862;30.636;2022-09-17T07:02:26;5.50;;;2.60;;
43325;SDS011;28920;59.862;30.636;2022-09-17T07:04:55;24.67;;;17.08;;
43325;SDS011;28920;59.862;30.636;2022-09-17T07:07:23;7.90;;;5.30;;
43325;SDS011;28920;59.862;30.636;2022-09-17T07:09:51;10.98;;;6.32;;
43325;SDS011;28920;59.862;30.636;2022-09-17T07:12:19;7.30;;;2.58;;
43325;SDS011;28920;59.862;30.636;2022-09-17T07:14:47;2.60;;;2.25;;
43325;SDS011;28920;59.862;30.636;2022-09-17T07:17:17;4.15;;;1.90;;
43325;SDS011;28920;59.862;30.636;2022-09-17T07:19:45;6.30;;;2.70;;
43325;SDS011;28920;59.862;30.636;2022-09-17T07:22:14;4.93;;;3.15;;
43325;SDS011;28920;59.862;30.636;2022-09-17T07:24:42;4.10;;;2.70;;
43325;SDS011;28920;59.862;30.636;2022-09-17T07:27:10;8.07;;;5.07;;
43325;SDS011;28920;59.862;30.636;2022-09-17T07:29:38;8.10;;;6.32;;
43325;SDS011;28920;59.862;30.636;2022-09-17T07:32:06;14.45;;;9.32;;
43325;SDS011;28920;59.862;30.636;2022-09-17T07:34:34;3.90;;;2.30;;
43325;SDS011;28920;59.862;30.636;2022-09-17T07:37:02;7.35;;;5.12;;
43325;SDS011;28920;59.862;30.636;2022-09-17T07:39:32;3.97;;;3.17;;
43325;SDS011;28920;59.862;30.636;2022-09-17T07:41:59;3.67;;;1.83;;
43325;SDS011;28920;59.862;30.636;2022-09-17T07:44:28;3.05;;;1.90;;
43325;SDS011;28920;59.862;30.636;2022-09-17T07:46:56;4.20;;;1.83;;
43325;SDS011;28920;59.862;30.636;2022-09-17T07:49:24;3.62;;;2.00;;
43325;SDS011;28920;59.862;30.636;2022-09-17T07:51:52;4.43;;;2.30;;
43325;SDS011;28920;59.862;30.636;2022-09-17T07:54:21;2.20;;;1.90;;
43325;SDS011;28920;59.862;30.636;2022-09-17T07:56:51;5.00;;;3.33;;
43325;SDS011;28920;59.862;30.636;2022-09-17T07:59:19;6.97;;;3.00;;
43325;SDS011;28920;59.862;30.636;2022-09-17T08:01:47;12.68;;;11.30;;
43325;SDS011;28920;59.862;30.636;2022-09-17T08:04:16;2.90;;;1.90;;
43325;SDS011;28920;59.862;30.636;2022-09-17T08:06:43;4.65;;;2.70;;
43325;SDS011;28920;59.862;30.636;2022-09-17T08:09:13;5.85;;;5.03;;
43325;SDS011;28920;59.862;30.636;2022-09-17T08:11:43;3.92;;;3.00;;
43325;SDS011;28920;59.862;30.636;2022-09-17T08:14:13;5.43;;;4.22;;
43325;SDS011;28920;59.862;30.636;2022-09-17T08:16:41;4.30;;;3.12;;
43325;SDS011;28920;59.862;30.636;2022-09-17T08:19:10;7.15;;;2.90;;
43325;SDS011;28920;59.862;30.636;2022-09-17T08:21:38;7.05;;;5.15;;
43325;SDS011;28920;59.862;30.636;2022-09-17T08:24:06;9.68;;;5.00;;
43325;SDS011;28920;59.862;30.636;2022-09-17T08:26:35;7.65;;;4.37;;
43325;SDS011;28920;59.862;30.636;2022-09-17T08:29:05;7.57;;;5.18;;
43325;SDS011;28920;59.862;30.636;2022-09-17T08:31:35;9.57;;;6.60;;
43325;SDS011;28920;59.862;30.636;2022-09-17T08:34:06;6.85;;;5.30;;
43325;SDS011;28920;59.862;30.636;2022-09-17T08:36:34;5.95;;;4.55;;
43325;SDS011;28920;59.862;30.636;2022-09-17T08:39:03;6.82;;;4.43;;
43325;SDS011;28920;59.862;30.636;2022-09-17T08:41:33;6.70;;;5.70;;
43325;SDS011;28920;59.862;30.636;2022-09-17T08:46:46;8.63;;;5.22;;
43325;SDS011;28920;59.862;30.636;2022-09-17T08:49:20;7.75;;;6.07;;
43325;SDS011;28920;59.862;30.636;2022-09-17T08:52:08;8.77;;;6.55;;
43325;SDS011;28920;59.862;30.636;2022-09-17T08:54:48;5.97;;;4.23;;
43325;SDS011;28920;59.862;30.636;2022-09-17T08:57:22;7.70;;;3.70;;
43325;SDS011;28920;59.862;30.636;2022-09-17T08:59:58;6.07;;;4.12;;
43325;SDS011;28920;59.862;30.636;2022-09-17T09:02:35;6.22;;;5.28;;
43325;SDS011;28920;59.862;30.636;2022-09-17T09:05:16;7.72;;;5.72;;
43325;SDS011;28920;59.862;30.636;2022-09-17T09:07:48;6.07;;;4.45;;
43325;SDS011;28920;59.862;30.636;2022-09-17T09:10:19;4.85;;;3.53;;
43325;SDS011;28920;59.862;30.636;2022-09-17T09:12:50;4.40;;;3.53;;
43325;SDS011;28920;59.862;30.636;2022-09-17T09:15:26;3.42;;;2.33;;
43325;SDS011;28920;59.862;30.636;2022-09-17T09:18:02;4.25;;;1.55;;
43325;SDS011;28920;59.862;30.636;2022-09-17T09:20:42;5.30;;;1.67;;
43325;SDS011;28920;59.862;30.636;2022-09-17T09:23:17;5.30;;;2.15;;
43325;SDS011;28920;59.862;30.636;2022-09-17T09:25:51;1.85;;;1.62;;
43325;SDS011;28920;59.862;30.636;2022-09-17T09:28:31;1.67;;;1.20;;
43325;SDS011;28920;59.862;30.636;2022-09-17T09:31:16;2.95;;;1.55;;
43325;SDS011;28920;59.862;30.636;2022-09-17T09:33:59;1.98;;;1.27;;
43325;SDS011;28920;59.862;30.636;2022-09-17T09:36:29;3.08;;;1.55;;
43325;SDS011;28920;59.862;30.636;2022-09-17T09:39:00;2.37;;;1.25;;
43325;SDS011;28920;59.862;30.636;2022-09-17T09:41:32;10.60;;;4.30;;
43325;SDS011;28920;59.862;30.636;2022-09-17T09:44:08;4.62;;;2.70;;
43325;SDS011;28920;59.862;30.636;2022-09-17T09:49:48;4.28;;;1.95;;
43325;SDS011;28920;59.862;30.636;2022-09-17T09:52:35;2.60;;;1.60;;
43325;SDS011;28920;59.862;30.636;2022-09-17T09:55:21;2.67;;;1.27;;
43325;SDS011;28920;59.862;30.636;2022-09-17T09:58:16;1.75;;;1.20;;
43325;SDS011;28920;59.862;30.636;2022-09-17T10:00:53;2.80;;;1.30;;
43325;SDS011;28920;59.862;30.636;2022-09-17T10:03:22;3.97;;;1.60;;
43325;SDS011;28920;59.862;30.636;2022-09-17T10:05:55;1.23;;;0.77;;
43325;SDS011;28920;59.862;30.636;2022-09-17T10:08:25;1.85;;;1.05;;
43325;SDS011;28920;59.862;30.636;2022-09-17T10:10:56;2.15;;;1.25;;
43325;SDS011;28920;59.862;30.636;2022-09-17T10:13:26;1.67;;;1.15;;
43325;SDS011;28920;59.862;30.636;2022-09-17T10:16:03;1.90;;;1.23;;
43325;SDS011;28920;59.862;30.636;2022-09-17T10:18:43;2.62;;;0.90;;
43325;SDS011;28920;59.862;30.636;2022-09-17T10:21:19;1.83;;;1.00;;
43325;SDS011;28920;59.862;30.636;2022-09-17T10:23:48;3.25;;;1.17;;
43325;SDS011;28920;59.862;30.636;2022-09-17T10:26:20;1.25;;;0.95;;
43325;SDS011;28920;59.862;30.636;2022-09-17T10:28:51;1.33;;;0.70;;
43325;SDS011;28920;59.862;30.636;2022-09-17T10:31:21;2.70;;;0.98;;
43325;SDS011;28920;59.862;30.636;2022-09-17T10:33:50;1.92;;;0.98;;
43325;SDS011;28920;59.862;30.636;2022-09-17T10:39:30;2.50;;;0.93;;
43325;SDS011;28920;59.862;30.636;2022-09-17T10:42:02;1.17;;;0.77;;
43325;SDS011;28920;59.862;30.636;2022-09-17T10:44:31;2.28;;;1.30;;
43325;SDS011;28920;59.862;30.636;2022-09-17T10:47:02;2.78;;;1.50;;
43325;SDS011;28920;59.862;30.636;2022-09-17T10:49:39;4.10;;;1.23;;
43325;SDS011;28920;59.862;30.636;2022-09-17T10:52:13;1.92;;;0.90;;
43325;SDS011;28920;59.862;30.636;2022-09-17T10:54:54;1.15;;;0.70;;
43325;SDS011;28920;59.862;30.636;2022-09-17T10:57:51;2.17;;;0.75;;
43325;SDS011;28920;59.862;30.636;2022-09-17T11:00:29;1.60;;;0.85;;
43325;SDS011;28920;59.862;30.636;2022-09-17T11:06:09;1.70;;;1.02;;
43325;SDS011;28920;59.862;30.636;2022-09-17T11:09:03;2.33;;;0.85;;
43325;SDS011;28920;59.862;30.636;2022-09-17T11:11:44;2.67;;;1.70;;
43325;SDS011;28920;59.862;30.636;2022-09-17T11:17:11;3.92;;;2.72;;
43325;SDS011;28920;59.862;30.636;2022-09-17T11:19:50;1.25;;;0.70;;
43325;SDS011;28920;59.862;30.636;2022-09-17T11:22:27;1.17;;;0.90;;
43325;SDS011;28920;59.862;30.636;2022-09-17T11:27:49;0.90;;;0.60;;
43325;SDS011;28920;59.862;30.636;2022-09-17T11:30:27;0.90;;;0.77;;
43325;SDS011;28920;59.862;30.636;2022-09-17T11:33:16;2.25;;;0.70;;
43325;SDS011;28920;59.862;30.636;2022-09-17T11:35:55;0.70;;;0.60;;
43325;SDS011;28920;59.862;30.636;2022-09-17T11:40:58;2.05;;;0.90;;
43325;SDS011;28920;59.862;30.636;2022-09-17T11:43:30;2.70;;;1.92;;
43325;SDS011;28920;59.862;30.636;2022-09-17T11:48:32;5.15;;;1.65;;
43325;SDS011;28920;59.862;30.636;2022-09-17T11:51:07;1.48;;;1.10;;
43325;SDS011;28920;59.862;30.636;2022-09-17T11:53:43;3.72;;;2.55;;
43325;SDS011;28920;59.862;30.636;2022-09-17T11:56:18;2.28;;;1.20;;
43325;SDS011;28920;59.862;30.636;2022-09-17T11:58:50;2.33;;;1.60;;
43325;SDS011;28920;59.862;30.636;2022-09-17T12:01:24;1.33;;;1.00;;
43325;SDS011;28920;59.862;30.636;2022-09-17T12:03:58;1.10;;;0.93;;
43325;SDS011;28920;59.862;30.636;2022-09-17T12:06:34;1.35;;;0.80;;
43325;SDS011;28920;59.862;30.636;2022-09-17T12:09:09;2.83;;;0.75;;
43325;SDS011;28920;59.862;30.636;2022-09-17T12:11:44;6.20;;;4.68;;
43325;SDS011;28920;59.862;30.636;2022-09-17T12:14:19;1.33;;;1.00;;
43325;SDS011;28920;59.862;30.636;2022-09-17T12:16:51;2.80;;;1.00;;
43325;SDS011;28920;59.862;30.636;2022-09-17T12:19:24;2.75;;;1.10;;
43325;SDS011;28920;59.862;30.636;2022-09-17T12:21:59;1.80;;;1.10;;
43325;SDS011;28920;59.862;30.636;2022-09-17T12:24:31;2.95;;;0.77;;
43325;SDS011;28920;59.862;30.636;2022-09-17T12:27:11;2.85;;;1.85;;
43325;SDS011;28920;59.862;30.636;2022-09-17T12:32:43;1.85;;;1.15;;
43325;SDS011;28920;59.862;30.636;2022-09-17T12:35:32;2.67;;;1.40;;
43325;SDS011;28920;59.862;30.636;2022-09-17T12:38:20;2.53;;;1.17;;
43325;SDS011;28920;59.862;30.636;2022-09-17T12:41:03;1.87;;;0.60;;
43325;SDS011;28920;59.862;30.636;2022-09-17T12:43:45;2.87;;;1.30;;
43325;SDS011;28920;59.862;30.636;2022-09-17T12:46:32;2.20;;;1.62;;
43325;SDS011;28920;59.862;30.636;2022-09-17T12:49:18;1.50;;;1.00;;
43325;SDS011;28920;59.862;30.636;2022-09-17T12:52:09;1.50;;;0.77;;
43325;SDS011;28920;59.862;30.636;2022-09-17T12:55:01;2.97;;;1.05;;
43325;SDS011;28920;59.862;30.636;2022-09-17T12:57:42;2.40;;;1.12;;
43325;SDS011;28920;59.862;30.636;2022-09-17T13:00:24;2.60;;;1.00;;
43325;SDS011;28920;59.862;30.636;2022-09-17T13:02:54;3.45;;;1.17;;
43325;SDS011;28920;59.862;30.636;2022-09-17T13:08:43;1.60;;;1.03;;
43325;SDS011;28920;59.862;30.636;2022-09-17T13:11:39;1.30;;;0.90;;
43325;SDS011;28920;59.862;30.636;2022-09-17T13:14:31;1.95;;;1.12;;
43325;SDS011;28920;59.862;30.636;2022-09-17T13:17:18;1.60;;;0.90;;
43325;SDS011;28920;59.862;30.636;2022-09-17T13:19:58;2.40;;;1.10;;
43325;SDS011;28920;59.862;30.636;2022-09-17T13:22:31;2.17;;;1.12;;
43325;SDS011;28920;59.862;30.636;2022-09-17T13:25:11;1.50;;;0.88;;
43325;SDS011;28920;59.862;30.636;2022-09-17T13:30:10;3.08;;;1.25;;
43325;SDS011;28920;59.862;30.636;2022-09-17T13:32:45;2.65;;;1.42;;
43325;SDS011;28920;59.862;30.636;2022-09-17T13:38:14;3.17;;;1.87;;
43325;SDS011;28920;59.862;30.636;2022-09-17T13:40:43;8.52;;;5.20;;
43325;SDS011;28920;59.862;30.636;2022-09-17T13:43:12;10.38;;;6.72;;
43325;SDS011;28920;59.862;30.636;2022-09-17T13:48:49;6.97;;;4.47;;
43325;SDS011;28920;59.862;30.636;2022-09-17T13:54:34;3.90;;;2.80;;
43325;SDS011;28920;59.862;30.636;2022-09-17T13:57:09;5.10;;;2.92;;
43325;SDS011;28920;59.862;30.636;2022-09-17T13:59:54;4.53;;;3.22;;
43325;SDS011;28920;59.862;30.636;2022-09-17T14:02:33;8.10;;;4.93;;
43325;SDS011;28920;59.862;30.636;2022-09-17T14:08:11;5.03;;;4.12;;
43325;SDS011;28920;59.862;30.636;2022-09-17T14:16:30;5.53;;;4.10;;
43325;SDS011;28920;59.862;30.636;2022-09-17T14:22:13;6.53;;;4.87;;
43325;SDS011;28920;59.862;30.636;2022-09-17T14:24:49;8.75;;;6.20;;
43325;SDS011;28920;59.862;30.636;2022-09-17T14:27:26;12.18;;;5.90;;
43325;SDS011;28920;59.862;30.636;2022-09-17T14:30:11;8.73;;;6.95;;
43325;SDS011;28920;59.862;30.636;2022-09-17T14:32:43;10.60;;;7.72;;
43325;SDS011;28920;59.862;30.636;2022-09-17T14:35:22;9.68;;;6.95;;
43325;SDS011;28920;59.862;30.636;2022-09-17T14:37:57;12.68;;;8.30;;
43325;SDS011;28920;59.862;30.636;2022-09-17T14:40:28;12.88;;;8.88;;
43325;SDS011;28920;59.862;30.636;2022-09-17T14:43:00;29.75;;;20.88;;
43325;SDS011;28920;59.862;30.636;2022-09-17T14:45:30;28.70;;;18.95;;
43325;SDS011;28920;59.862;30.636;2022-09-17T14:50:53;26.37;;;19.80;;
43325;SDS011;28920;59.862;30.636;2022-09-17T14:53:41;24.98;;;15.10;;
43325;SDS011;28920;59.862;30.636;2022-09-17T14:56:10;25.08;;;18.12;;
43325;SDS011;28920;59.862;30.636;2022-09-17T14:58:41;13.43;;;9.80;;
43325;SDS011;28920;59.862;30.636;2022-09-17T15:01:19;18.23;;;13.10;;
43325;SDS011;28920;59.862;30.636;2022-09-17T15:03:50;28.12;;;17.77;;
43325;SDS011;28920;59.862;30.636;2022-09-17T15:06:46;18.17;;;9.57;;
43325;SDS011;28920;59.862;30.636;2022-09-17T15:09:16;12.52;;;8.73;;
43325;SDS011;28920;59.862;30.636;2022-09-17T15:11:45;18.37;;;12.60;;
43325;SDS011;28920;59.862;30.636;2022-09-17T15:14:16;20.85;;;12.05;;
43325;SDS011;28920;59.862;30.636;2022-09-17T15:16:47;61.72;;;36.42;;
43325;SDS011;28920;59.862;30.636;2022-09-17T15:19:21;21.23;;;12.80;;
43325;SDS011;28920;59.862;30.636;2022-09-17T15:21:53;27.50;;;16.27;;
43325;SDS011;28920;59.862;30.636;2022-09-17T15:24:29;66.20;;;39.10;;
43325;SDS011;28920;59.862;30.636;2022-09-17T15:27:02;34.88;;;20.70;;
43325;SDS011;28920;59.862;30.636;2022-09-17T15:29:37;9.05;;;6.43;;
43325;SDS011;28920;59.862;30.636;2022-09-17T15:32:08;10.52;;;5.87;;
43325;SDS011;28920;59.862;30.636;2022-09-17T15:34:39;14.00;;;9.95;;
43325;SDS011;28920;59.862;30.636;2022-09-17T15:37:15;23.20;;;17.23;;
43325;SDS011;28920;59.862;30.636;2022-09-17T15:39:47;21.73;;;16.55;;
43325;SDS011;28920;59.862;30.636;2022-09-17T15:42:17;12.85;;;11.23;;
43325;SDS011;28920;59.862;30.636;2022-09-17T15:44:50;10.23;;;8.05;;
43325;SDS011;28920;59.862;30.636;2022-09-17T15:47:47;13.25;;;9.23;;
43325;SDS011;28920;59.862;30.636;2022-09-17T15:50:18;7.70;;;6.90;;
43325;SDS011;28920;59.862;30.636;2022-09-17T15:52:48;8.88;;;4.70;;
43325;SDS011;28920;59.862;30.636;2022-09-17T15:55:27;10.48;;;8.05;;
43325;SDS011;28920;59.862;30.636;2022-09-17T15:57:58;6.80;;;4.35;;
43325;SDS011;28920;59.862;30.636;2022-09-17T16:00:27;7.40;;;4.22;;
43325;SDS011;28920;59.862;30.636;2022-09-17T16:02:56;8.48;;;6.68;;
43325;SDS011;28920;59.862;30.636;2022-09-17T16:08:20;6.32;;;4.95;;
43325;SDS011;28920;59.862;30.636;2022-09-17T16:10:51;6.93;;;5.20;;
43325;SDS011;28920;59.862;30.636;2022-09-17T16:13:19;6.87;;;5.18;;
43325;SDS011;28920;59.862;30.636;2022-09-17T16:15:47;6.00;;;4.22;;